sensor_id;sensor_type;location;lat;lon;timestamp;pressure;altitude;pressure_sealevel;temperature;humidity
53340;BME280;46212;50.258;19.062;2023-04-19T00:01:47;98745.88;;;10.71;92.98
53340;BME280;46212;50.258;19.062;2023-04-19T00:04:13;98738.63;;;10.64;92.64
53340;BME280;46212;50.258;19.062;2023-04-19T00:06:39;98736.47;;;10.59;93.31
53340;BME280;46212;50.258;19.062;2023-04-19T00:09:06;98732.59;;;10.56;93.62
53340;BME280;46212;50.258;19.062;2023-04-19T00:11:32;98737.94;;;10.51;94.40
53340;BME280;46212;50.258;19.062;2023-04-19T00:13:57;98735.56;;;10.62;93.69
53340;BME280;46212;50.258;19.062;2023-04-19T00:16:22;98726.63;;;10.58;93.30
53340;BME280;46212;50.258;19.062;2023-04-19T00:18:48;98722.00;;;10.55;93.99
53340;BME280;46212;50.258;19.062;2023-04-19T00:21:14;98722.41;;;10.44;94.34
53340;BME280;46212;50.258;19.062;2023-04-19T00:23:39;98715.81;;;10.42;95.05
53340;BME280;46212;50.258;19.062;2023-04-19T00:26:04;98719.25;;;10.55;93.95
53340;BME280;46212;50.258;19.062;2023-04-19T00:28:30;98717.06;;;10.50;93.97
53340;BME280;46212;50.258;19.062;2023-04-19T00:30:56;98712.13;;;10.45;94.07
53340;BME280;46212;50.258;19.062;2023-04-19T00:33:21;98715.81;;;10.42;93.42
53340;BME280;46212;50.258;19.062;2023-04-19T00:35:46;98709.38;;;10.45;93.34
53340;BME280;46212;50.258;19.062;2023-04-19T00:38:12;98711.22;;;10.48;92.99
53340;BME280;46212;50.258;19.062;2023-04-19T00:40:37;98710.53;;;10.35;93.07
53340;BME280;46212;50.258;19.062;2023-04-19T00:43:03;98704.13;;;10.38;93.84
53340;BME280;46212;50.258;19.062;2023-04-19T00:45:28;98702.09;;;10.29;93.30
53340;BME280;46212;50.258;19.062;2023-04-19T00:47:55;98699.38;;;10.38;92.54
53340;BME280;46212;50.258;19.062;2023-04-19T00:50:20;98698.13;;;10.30;93.21
53340;BME280;46212;50.258;19.062;2023-04-19T00:52:47;98694.84;;;10.23;93.26
53340;BME280;46212;50.258;19.062;2023-04-19T00:55:12;98690.56;;;10.31;92.83
53340;BME280;46212;50.258;19.062;2023-04-19T00:57:39;98687.59;;;10.16;92.65
53340;BME280;46212;50.258;19.062;2023-04-19T01:00:05;98684.69;;;10.20;93.55
53340;BME280;46212;50.258;19.062;2023-04-19T01:02:33;98674.75;;;10.22;91.98
53340;BME280;46212;50.258;19.062;2023-04-19T01:04:58;98680.09;;;10.17;92.13
53340;BME280;46212;50.258;19.062;2023-04-19T01:07:23;98674.91;;;10.06;93.03
53340;BME280;46212;50.258;19.062;2023-04-19T01:09:49;98672.63;;;10.04;92.38
53340;BME280;46212;50.258;19.062;2023-04-19T01:12:15;98671.59;;;10.11;91.43
53340;BME280;46212;50.258;19.062;2023-04-19T01:14:40;98666.38;;;10.13;91.14
53340;BME280;46212;50.258;19.062;2023-04-19T01:17:07;98666.50;;;10.09;91.10
53340;BME280;46212;50.258;19.062;2023-04-19T01:19:32;98665.75;;;9.87;92.37
53340;BME280;46212;50.258;19.062;2023-04-19T01:21:59;98641.84;;;9.84;92.76
53340;BME280;46212;50.258;19.062;2023-04-19T01:24:27;98652.91;;;9.93;91.83
53340;BME280;46212;50.258;19.062;2023-04-19T01:26:52;98654.91;;;9.71;92.97
53340;BME280;46212;50.258;19.062;2023-04-19T01:29:17;98648.56;;;9.83;92.50
53340;BME280;46212;50.258;19.062;2023-04-19T01:31:44;98647.16;;;9.79;92.33
53340;BME280;46212;50.258;19.062;2023-04-19T01:34:15;98637.94;;;9.73;93.29
53340;BME280;46212;50.258;19.062;2023-04-19T01:36:40;98640.44;;;9.80;93.15
53340;BME280;46212;50.258;19.062;2023-04-19T01:39:06;98639.78;;;9.97;90.88
53340;BME280;46212;50.258;19.062;2023-04-19T01:41:31;98641.91;;;9.72;91.51
53340;BME280;46212;50.258;19.062;2023-04-19T01:43:57;98635.78;;;9.77;92.72
53340;BME280;46212;50.258;19.062;2023-04-19T01:46:22;98632.22;;;9.89;91.00
53340;BME280;46212;50.258;19.062;2023-04-19T01:48:47;98629.34;;;9.92;90.56
53340;BME280;46212;50.258;19.062;2023-04-19T01:51:13;98630.84;;;9.93;90.49
53340;BME280;46212;50.258;19.062;2023-04-19T01:53:38;98620.97;;;9.83;90.59
53340;BME280;46212;50.258;19.062;2023-04-19T01:56:04;98623.16;;;9.88;90.46
53340;BME280;46212;50.258;19.062;2023-04-19T01:58:29;98629.47;;;9.89;90.37
53340;BME280;46212;50.258;19.062;2023-04-19T02:00:55;98627.91;;;9.88;90.12
53340;BME280;46212;50.258;19.062;2023-04-19T02:03:20;98623.31;;;9.85;89.95
53340;BME280;46212;50.258;19.062;2023-04-19T02:05:45;98630.56;;;9.70;90.11
53340;BME280;46212;50.258;19.062;2023-04-19T02:08:11;98625.47;;;9.68;90.69
53340;BME280;46212;50.258;19.062;2023-04-19T02:10:36;98621.56;;;9.78;90.15
53340;BME280;46212;50.258;19.062;2023-04-19T02:13:02;98623.44;;;9.59;90.20
53340;BME280;46212;50.258;19.062;2023-04-19T02:15:27;98621.13;;;9.58;91.10
53340;BME280;46212;50.258;19.062;2023-04-19T02:17:52;98624.22;;;9.60;91.75
53340;BME280;46212;50.258;19.062;2023-04-19T02:20:18;98615.03;;;9.41;92.71
53340;BME280;46212;50.258;19.062;2023-04-19T02:22:43;98624.69;;;9.68;90.75
53340;BME280;46212;50.258;19.062;2023-04-19T02:25:09;98609.28;;;9.70;89.89
53340;BME280;46212;50.258;19.062;2023-04-19T02:27:34;98615.53;;;9.71;90.13
53340;BME280;46212;50.258;19.062;2023-04-19T02:30:00;98609.47;;;9.76;89.65
53340;BME280;46212;50.258;19.062;2023-04-19T02:32:26;98604.91;;;9.60;90.33
53340;BME280;46212;50.258;19.062;2023-04-19T02:34:51;98608.56;;;9.57;90.61
53340;BME280;46212;50.258;19.062;2023-04-19T02:37:16;98603.31;;;9.50;91.13
53340;BME280;46212;50.258;19.062;2023-04-19T02:39:42;98602.78;;;9.64;90.19
53340;BME280;46212;50.258;19.062;2023-04-19T02:42:07;98596.75;;;9.56;91.27
53340;BME280;46212;50.258;19.062;2023-04-19T02:44:33;98596.00;;;9.56;90.92
53340;BME280;46212;50.258;19.062;2023-04-19T02:46:58;98594.13;;;9.53;91.28
53340;BME280;46212;50.258;19.062;2023-04-19T02:49:24;98602.53;;;9.49;91.94
53340;BME280;46212;50.258;19.062;2023-04-19T02:51:50;98594.44;;;9.33;93.38
53340;BME280;46212;50.258;19.062;2023-04-19T02:54:16;98589.56;;;9.59;91.66
53340;BME280;46212;50.258;19.062;2023-04-19T02:56:41;98591.69;;;9.55;91.86
53340;BME280;46212;50.258;19.062;2023-04-19T02:59:07;98590.78;;;9.58;92.35
53340;BME280;46212;50.258;19.062;2023-04-19T03:01:32;98581.63;;;9.61;91.73
53340;BME280;46212;50.258;19.062;2023-04-19T03:03:58;98579.44;;;9.56;92.59
53340;BME280;46212;50.258;19.062;2023-04-19T03:06:23;98576.94;;;9.49;93.26
53340;BME280;46212;50.258;19.062;2023-04-19T03:08:49;98571.00;;;9.50;93.16
53340;BME280;46212;50.258;19.062;2023-04-19T03:11:15;98573.41;;;9.48;92.84
53340;BME280;46212;50.258;19.062;2023-04-19T03:13:41;98567.72;;;9.43;93.03
53340;BME280;46212;50.258;19.062;2023-04-19T03:16:07;98569.06;;;9.38;93.54
53340;BME280;46212;50.258;19.062;2023-04-19T03:18:33;98570.22;;;9.28;94.93
53340;BME280;46212;50.258;19.062;2023-04-19T03:20:58;98564.72;;;9.28;95.54
53340;BME280;46212;50.258;19.062;2023-04-19T03:23:24;98551.06;;;9.25;95.59
53340;BME280;46212;50.258;19.062;2023-04-19T03:25:50;98550.81;;;9.32;94.62
53340;BME280;46212;50.258;19.062;2023-04-19T03:28:15;98548.94;;;9.29;95.24
53340;BME280;46212;50.258;19.062;2023-04-19T03:30:41;98543.94;;;9.15;95.91
53340;BME280;46212;50.258;19.062;2023-04-19T03:33:06;98538.59;;;9.20;96.93
53340;BME280;46212;50.258;19.062;2023-04-19T03:35:32;98541.13;;;9.27;95.98
53340;BME280;46212;50.258;19.062;2023-04-19T03:37:57;98544.00;;;9.24;95.72
53340;BME280;46212;50.258;19.062;2023-04-19T03:40:23;98546.69;;;9.15;96.51
53340;BME280;46212;50.258;19.062;2023-04-19T03:42:48;98539.06;;;9.19;96.47
53340;BME280;46212;50.258;19.062;2023-04-19T03:45:14;98537.41;;;9.21;95.99
53340;BME280;46212;50.258;19.062;2023-04-19T03:47:39;98536.06;;;9.26;95.72
53340;BME280;46212;50.258;19.062;2023-04-19T03:50:05;98531.81;;;9.12;96.43
53340;BME280;46212;50.258;19.062;2023-04-19T03:52:30;98527.41;;;9.15;96.19
53340;BME280;46212;50.258;19.062;2023-04-19T03:54:56;98521.13;;;9.14;96.35
53340;BME280;46212;50.258;19.062;2023-04-19T03:57:21;98528.53;;;9.26;96.43
53340;BME280;46212;50.258;19.062;2023-04-19T03:59:46;98516.00;;;9.25;95.70
53340;BME280;46212;50.258;19.062;2023-04-19T04:02:12;98520.88;;;9.21;95.62
53340;BME280;46212;50.258;19.062;2023-04-19T04:04:37;98512.59;;;9.21;95.99
53340;BME280;46212;50.258;19.062;2023-04-19T04:07:02;98511.25;;;9.26;95.73
53340;BME280;46212;50.258;19.062;2023-04-19T04:09:28;98502.34;;;9.22;94.70
53340;BME280;46212;50.258;19.062;2023-04-19T04:11:53;98503.50;;;9.12;95.35
53340;BME280;46212;50.258;19.062;2023-04-19T04:14:19;98509.44;;;9.10;95.65
53340;BME280;46212;50.258;19.062;2023-04-19T04:16:44;98497.75;;;9.19;95.48
53340;BME280;46212;50.258;19.062;2023-04-19T04:19:09;98507.22;;;9.18;95.77
53340;BME280;46212;50.258;19.062;2023-04-19T04:21:35;98502.66;;;9.24;94.82
53340;BME280;46212;50.258;19.062;2023-04-19T04:24:00;98509.72;;;9.25;93.87
53340;BME280;46212;50.258;19.062;2023-04-19T04:26:26;98511.50;;;9.19;94.73
53340;BME280;46212;50.258;19.062;2023-04-19T04:28:55;98502.78;;;9.20;93.85
53340;BME280;46212;50.258;19.062;2023-04-19T04:31:21;98507.69;;;9.16;94.71
53340;BME280;46212;50.258;19.062;2023-04-19T04:33:46;98501.88;;;9.23;92.94
53340;BME280;46212;50.258;19.062;2023-04-19T04:36:12;98495.38;;;9.08;94.25
53340;BME280;46212;50.258;19.062;2023-04-19T04:38:37;98489.91;;;8.95;96.05
53340;BME280;46212;50.258;19.062;2023-04-19T04:41:03;98490.81;;;9.14;96.45
53340;BME280;46212;50.258;19.062;2023-04-19T04:43:28;98498.63;;;9.37;94.19
53340;BME280;46212;50.258;19.062;2023-04-19T04:45:54;98500.34;;;9.44;93.17
53340;BME280;46212;50.258;19.062;2023-04-19T04:48:21;98500.22;;;9.47;92.63
53340;BME280;46212;50.258;19.062;2023-04-19T04:50:46;98501.75;;;9.48;92.95
53340;BME280;46212;50.258;19.062;2023-04-19T04:53:12;98503.16;;;9.53;91.89
53340;BME280;46212;50.258;19.062;2023-04-19T04:55:37;98516.28;;;9.49;91.68
53340;BME280;46212;50.258;19.062;2023-04-19T04:58:03;98511.56;;;9.49;91.59
53340;BME280;46212;50.258;19.062;2023-04-19T05:00:31;98520.47;;;9.53;91.26
53340;BME280;46212;50.258;19.062;2023-04-19T05:02:57;98519.81;;;9.49;91.85
53340;BME280;46212;50.258;19.062;2023-04-19T05:05:23;98507.25;;;9.48;91.49
53340;BME280;46212;50.258;19.062;2023-04-19T05:07:48;98503.16;;;9.53;91.09
53340;BME280;46212;50.258;19.062;2023-04-19T05:10:14;98499.09;;;9.67;89.74
53340;BME280;46212;50.258;19.062;2023-04-19T05:12:40;98497.28;;;9.73;88.22
53340;BME280;46212;50.258;19.062;2023-04-19T05:15:06;98502.97;;;9.78;88.40
53340;BME280;46212;50.258;19.062;2023-04-19T05:17:32;98494.19;;;9.71;88.31
53340;BME280;46212;50.258;19.062;2023-04-19T05:19:57;98488.38;;;9.69;89.23
53340;BME280;46212;50.258;19.062;2023-04-19T05:22:22;98502.06;;;9.81;89.01
53340;BME280;46212;50.258;19.062;2023-04-19T05:24:48;98489.84;;;9.82;89.40
53340;BME280;46212;50.258;19.062;2023-04-19T05:27:14;98495.25;;;9.95;88.68
53340;BME280;46212;50.258;19.062;2023-04-19T05:29:40;98507.56;;;10.12;88.58
53340;BME280;46212;50.258;19.062;2023-04-19T05:32:05;98501.66;;;10.23;87.84
53340;BME280;46212;50.258;19.062;2023-04-19T05:34:32;98497.53;;;10.27;87.97
53340;BME280;46212;50.258;19.062;2023-04-19T05:36:58;98496.28;;;10.28;87.69
53340;BME280;46212;50.258;19.062;2023-04-19T05:39:23;98502.41;;;10.23;86.67
53340;BME280;46212;50.258;19.062;2023-04-19T05:41:50;98495.19;;;10.17;87.39
53340;BME280;46212;50.258;19.062;2023-04-19T05:44:15;98497.13;;;10.07;87.25
53340;BME280;46212;50.258;19.062;2023-04-19T05:46:41;98500.75;;;9.95;88.04
53340;BME280;46212;50.258;19.062;2023-04-19T05:49:06;98498.44;;;9.93;87.98
53340;BME280;46212;50.258;19.062;2023-04-19T05:51:32;98499.81;;;9.58;84.96
53340;BME280;46212;50.258;19.062;2023-04-19T05:53:59;98509.09;;;9.51;85.77
53340;BME280;46212;50.258;19.062;2023-04-19T05:56:24;98508.28;;;9.42;84.98
53340;BME280;46212;50.258;19.062;2023-04-19T05:58:50;98507.19;;;9.39;85.26
53340;BME280;46212;50.258;19.062;2023-04-19T06:01:15;98513.78;;;9.42;85.29
53340;BME280;46212;50.258;19.062;2023-04-19T06:03:40;98518.44;;;9.45;85.75
53340;BME280;46212;50.258;19.062;2023-04-19T06:06:06;98506.81;;;9.50;84.99
53340;BME280;46212;50.258;19.062;2023-04-19T06:08:31;98509.34;;;9.35;83.06
53340;BME280;46212;50.258;19.062;2023-04-19T06:10:58;98517.41;;;9.30;82.72
53340;BME280;46212;50.258;19.062;2023-04-19T06:13:24;98508.31;;;9.20;82.96
53340;BME280;46212;50.258;19.062;2023-04-19T06:15:49;98518.69;;;9.16;83.25
53340;BME280;46212;50.258;19.062;2023-04-19T06:18:15;98508.13;;;9.15;84.07
53340;BME280;46212;50.258;19.062;2023-04-19T06:20:40;98509.19;;;9.17;84.86
53340;BME280;46212;50.258;19.062;2023-04-19T06:23:06;98521.38;;;9.07;84.84
53340;BME280;46212;50.258;19.062;2023-04-19T06:25:32;98518.16;;;9.08;85.04
53340;BME280;46212;50.258;19.062;2023-04-19T06:27:57;98521.69;;;9.09;83.93
53340;BME280;46212;50.258;19.062;2023-04-19T06:30:24;98521.50;;;9.03;82.78
53340;BME280;46212;50.258;19.062;2023-04-19T06:32:50;98526.13;;;9.06;82.08
53340;BME280;46212;50.258;19.062;2023-04-19T06:35:15;98527.25;;;8.96;81.17
53340;BME280;46212;50.258;19.062;2023-04-19T06:37:41;98527.63;;;8.86;82.23
53340;BME280;46212;50.258;19.062;2023-04-19T06:40:06;98533.66;;;8.93;82.13
53340;BME280;46212;50.258;19.062;2023-04-19T06:42:36;98531.69;;;8.94;81.59
53340;BME280;46212;50.258;19.062;2023-04-19T06:45:01;98528.28;;;8.90;81.64
53340;BME280;46212;50.258;19.062;2023-04-19T06:47:28;98528.81;;;8.85;81.96
53340;BME280;46212;50.258;19.062;2023-04-19T06:49:53;98538.56;;;8.77;81.03
53340;BME280;46212;50.258;19.062;2023-04-19T06:52:19;98522.03;;;8.77;80.96
53340;BME280;46212;50.258;19.062;2023-04-19T06:54:48;98533.59;;;8.84;82.07
53340;BME280;46212;50.258;19.062;2023-04-19T06:57:15;98532.81;;;8.84;80.87
53340;BME280;46212;50.258;19.062;2023-04-19T06:59:40;98535.56;;;8.84;81.56
53340;BME280;46212;50.258;19.062;2023-04-19T07:02:05;98538.72;;;8.95;81.79
53340;BME280;46212;50.258;19.062;2023-04-19T07:04:31;98535.53;;;8.96;80.72
53340;BME280;46212;50.258;19.062;2023-04-19T07:06:56;98527.75;;;8.82;79.94
53340;BME280;46212;50.258;19.062;2023-04-19T07:09:22;98529.00;;;8.69;80.64
53340;BME280;46212;50.258;19.062;2023-04-19T07:11:47;98523.50;;;8.69;80.64
53340;BME280;46212;50.258;19.062;2023-04-19T07:14:15;98526.59;;;8.58;80.68
53340;BME280;46212;50.258;19.062;2023-04-19T07:16:43;98529.28;;;8.49;80.03
53340;BME280;46212;50.258;19.062;2023-04-19T07:19:09;98536.22;;;8.41;81.27
53340;BME280;46212;50.258;19.062;2023-04-19T07:21:34;98538.53;;;8.42;82.07
53340;BME280;46212;50.258;19.062;2023-04-19T07:24:02;98540.59;;;8.51;83.60
53340;BME280;46212;50.258;19.062;2023-04-19T07:26:27;98537.06;;;8.50;83.57
53340;BME280;46212;50.258;19.062;2023-04-19T07:28:53;98540.06;;;8.56;83.63
53340;BME280;46212;50.258;19.062;2023-04-19T07:31:18;98537.50;;;8.62;84.65
53340;BME280;46212;50.258;19.062;2023-04-19T07:33:44;98541.66;;;8.66;83.61
53340;BME280;46212;50.258;19.062;2023-04-19T07:36:09;98539.91;;;8.60;81.72
53340;BME280;46212;50.258;19.062;2023-04-19T07:38:35;98538.81;;;8.57;83.26
53340;BME280;46212;50.258;19.062;2023-04-19T07:41:01;98543.13;;;8.58;83.31
53340;BME280;46212;50.258;19.062;2023-04-19T07:43:28;98548.75;;;8.54;84.07
53340;BME280;46212;50.258;19.062;2023-04-19T07:45:54;98552.28;;;8.42;84.02
53340;BME280;46212;50.258;19.062;2023-04-19T07:48:20;98547.88;;;8.45;84.07
53340;BME280;46212;50.258;19.062;2023-04-19T07:50:45;98551.28;;;8.49;83.58
53340;BME280;46212;50.258;19.062;2023-04-19T07:53:11;98550.31;;;8.43;82.62
53340;BME280;46212;50.258;19.062;2023-04-19T07:55:36;98544.03;;;8.42;83.92
53340;BME280;46212;50.258;19.062;2023-04-19T07:58:02;98553.03;;;8.56;84.52
53340;BME280;46212;50.258;19.062;2023-04-19T08:00:27;98549.84;;;8.57;83.07
53340;BME280;46212;50.258;19.062;2023-04-19T08:02:54;98549.06;;;8.57;82.96
53340;BME280;46212;50.258;19.062;2023-04-19T08:05:21;98554.91;;;8.59;83.54
53340;BME280;46212;50.258;19.062;2023-04-19T08:07:50;98548.81;;;8.64;84.67
53340;BME280;46212;50.258;19.062;2023-04-19T08:10:17;98551.44;;;8.80;83.77
53340;BME280;46212;50.258;19.062;2023-04-19T08:12:42;98546.91;;;8.86;82.39
53340;BME280;46212;50.258;19.062;2023-04-19T08:15:08;98545.53;;;9.03;80.92
53340;BME280;46212;50.258;19.062;2023-04-19T08:17:33;98544.50;;;9.10;80.92
53340;BME280;46212;50.258;19.062;2023-04-19T08:19:59;98543.22;;;9.23;81.48
53340;BME280;46212;50.258;19.062;2023-04-19T08:22:24;98528.94;;;9.37;81.77
53340;BME280;46212;50.258;19.062;2023-04-19T08:24:50;98542.53;;;9.53;81.62
53340;BME280;46212;50.258;19.062;2023-04-19T08:27:16;98539.19;;;9.58;79.08
53340;BME280;46212;50.258;19.062;2023-04-19T08:29:43;98538.41;;;9.58;79.56
53340;BME280;46212;50.258;19.062;2023-04-19T08:32:08;98539.00;;;9.53;77.85
53340;BME280;46212;50.258;19.062;2023-04-19T08:34:34;98542.47;;;9.44;78.42
53340;BME280;46212;50.258;19.062;2023-04-19T08:37:03;98540.63;;;9.41;79.53
53340;BME280;46212;50.258;19.062;2023-04-19T08:39:30;98544.47;;;9.44;79.71
53340;BME280;46212;50.258;19.062;2023-04-19T08:41:55;98536.06;;;9.47;80.15
53340;BME280;46212;50.258;19.062;2023-04-19T08:44:22;98545.16;;;9.57;80.44
53340;BME280;46212;50.258;19.062;2023-04-19T08:46:48;98550.38;;;9.64;78.80
53340;BME280;46212;50.258;19.062;2023-04-19T08:49:15;98541.38;;;9.64;78.00
53340;BME280;46212;50.258;19.062;2023-04-19T08:51:41;98544.44;;;9.66;79.67
53340;BME280;46212;50.258;19.062;2023-04-19T08:54:08;98545.69;;;9.74;79.66
53340;BME280;46212;50.258;19.062;2023-04-19T08:56:35;98535.47;;;9.83;78.88
53340;BME280;46212;50.258;19.062;2023-04-19T08:59:00;98519.44;;;9.91;78.50
53340;BME280;46212;50.258;19.062;2023-04-19T09:01:26;98523.44;;;9.99;76.68
53340;BME280;46212;50.258;19.062;2023-04-19T09:03:51;98524.22;;;9.99;77.09
53340;BME280;46212;50.258;19.062;2023-04-19T09:06:17;98532.38;;;10.12;78.92
53340;BME280;46212;50.258;19.062;2023-04-19T09:08:42;98532.13;;;10.19;77.99
53340;BME280;46212;50.258;19.062;2023-04-19T09:11:08;98533.56;;;10.24;76.28
53340;BME280;46212;50.258;19.062;2023-04-19T09:13:33;98529.41;;;10.28;75.70
53340;BME280;46212;50.258;19.062;2023-04-19T09:16:03;98528.97;;;10.30;75.89
53340;BME280;46212;50.258;19.062;2023-04-19T09:18:29;98533.31;;;10.49;75.63
53340;BME280;46212;50.258;19.062;2023-04-19T09:20:54;98516.63;;;10.71;75.01
53340;BME280;46212;50.258;19.062;2023-04-19T09:23:24;98526.31;;;10.84;74.77
53340;BME280;46212;50.258;19.062;2023-04-19T09:26:00;98520.47;;;10.91;73.21
53340;BME280;46212;50.258;19.062;2023-04-19T09:28:30;98522.63;;;11.05;71.94
53340;BME280;46212;50.258;19.062;2023-04-19T09:30:56;98519.38;;;11.07;72.94
53340;BME280;46212;50.258;19.062;2023-04-19T09:33:35;98517.56;;;11.13;73.88
53340;BME280;46212;50.258;19.062;2023-04-19T09:36:04;98524.16;;;10.97;73.77
53340;BME280;46212;50.258;19.062;2023-04-19T09:38:48;98519.69;;;10.82;71.99
53340;BME280;46212;50.258;19.062;2023-04-19T09:41:14;98521.50;;;10.57;73.05
53340;BME280;46212;50.258;19.062;2023-04-19T09:43:41;98525.59;;;10.35;74.95
53340;BME280;46212;50.258;19.062;2023-04-19T09:46:06;98534.84;;;10.10;74.98
53340;BME280;46212;50.258;19.062;2023-04-19T09:48:32;98532.38;;;9.72;75.91
53340;BME280;46212;50.258;19.062;2023-04-19T09:50:59;98539.63;;;9.57;77.62
53340;BME280;46212;50.258;19.062;2023-04-19T09:53:26;98543.09;;;9.48;79.12
53340;BME280;46212;50.258;19.062;2023-04-19T09:55:53;98538.28;;;9.40;78.71
53340;BME280;46212;50.258;19.062;2023-04-19T09:58:19;98544.66;;;9.28;78.99
53340;BME280;46212;50.258;19.062;2023-04-19T10:00:46;98540.47;;;9.23;80.13
53340;BME280;46212;50.258;19.062;2023-04-19T10:03:14;98543.34;;;9.20;80.65
53340;BME280;46212;50.258;19.062;2023-04-19T10:05:40;98543.34;;;9.20;80.34
53340;BME280;46212;50.258;19.062;2023-04-19T10:08:07;98533.44;;;9.22;81.19
53340;BME280;46212;50.258;19.062;2023-04-19T10:10:33;98537.03;;;9.32;79.50
53340;BME280;46212;50.258;19.062;2023-04-19T10:13:02;98523.03;;;9.26;79.05
53340;BME280;46212;50.258;19.062;2023-04-19T10:15:29;98534.00;;;9.39;78.46
53340;BME280;46212;50.258;19.062;2023-04-19T10:17:55;98534.91;;;9.57;78.12
53340;BME280;46212;50.258;19.062;2023-04-19T10:21:00;98530.13;;;9.58;78.46
53340;BME280;46212;50.258;19.062;2023-04-19T10:23:28;98524.13;;;9.50;78.97
53340;BME280;46212;50.258;19.062;2023-04-19T10:25:56;98536.09;;;9.56;78.76
53340;BME280;46212;50.258;19.062;2023-04-19T10:28:22;98522.50;;;9.62;78.89
53340;BME280;46212;50.258;19.062;2023-04-19T10:30:53;98529.22;;;9.61;78.92
53340;BME280;46212;50.258;19.062;2023-04-19T10:33:27;98530.66;;;9.66;78.16
53340;BME280;46212;50.258;19.062;2023-04-19T10:35:57;98522.72;;;9.46;78.80
53340;BME280;46212;50.258;19.062;2023-04-19T10:41:08;98525.22;;;9.10;80.50
53340;BME280;46212;50.258;19.062;2023-04-19T10:43:46;98519.59;;;9.13;80.59
53340;BME280;46212;50.258;19.062;2023-04-19T10:48:56;98528.75;;;9.32;81.20
53340;BME280;46212;50.258;19.062;2023-04-19T10:51:26;98523.56;;;9.34;80.82
53340;BME280;46212;50.258;19.062;2023-04-19T11:01:54;98542.19;;;9.08;81.34
53340;BME280;46212;50.258;19.062;2023-04-19T11:09:27;98540.38;;;8.92;81.88
53340;BME280;46212;50.258;19.062;2023-04-19T11:11:57;98545.16;;;8.79;82.55
53340;BME280;46212;50.258;19.062;2023-04-19T11:14:24;98549.22;;;8.87;81.98
53340;BME280;46212;50.258;19.062;2023-04-19T11:16:49;98549.47;;;8.80;81.27
53340;BME280;46212;50.258;19.062;2023-04-19T11:19:18;98551.44;;;8.80;81.09
53340;BME280;46212;50.258;19.062;2023-04-19T11:21:47;98546.50;;;8.75;80.86
53340;BME280;46212;50.258;19.062;2023-04-19T11:24:14;98543.00;;;8.62;81.13
53340;BME280;46212;50.258;19.062;2023-04-19T11:26:46;98548.66;;;8.45;81.80
53340;BME280;46212;50.258;19.062;2023-04-19T11:29:12;98540.81;;;8.44;82.26
53340;BME280;46212;50.258;19.062;2023-04-19T11:31:38;98552.59;;;8.44;80.74
53340;BME280;46212;50.258;19.062;2023-04-19T11:34:04;98543.84;;;8.37;80.75
53340;BME280;46212;50.258;19.062;2023-04-19T11:36:30;98545.03;;;8.36;81.82
53340;BME280;46212;50.258;19.062;2023-04-19T11:38:57;98537.97;;;8.35;82.52
53340;BME280;46212;50.258;19.062;2023-04-19T11:41:22;98546.56;;;8.37;83.58
53340;BME280;46212;50.258;19.062;2023-04-19T11:43:47;98549.34;;;8.37;83.79
53340;BME280;46212;50.258;19.062;2023-04-19T11:46:13;98532.25;;;8.42;83.98
53340;BME280;46212;50.258;19.062;2023-04-19T11:48:49;98543.34;;;8.51;83.24
53340;BME280;46212;50.258;19.062;2023-04-19T11:51:16;98544.81;;;8.43;83.88
53340;BME280;46212;50.258;19.062;2023-04-19T11:53:41;98544.47;;;8.41;83.32
53340;BME280;46212;50.258;19.062;2023-04-19T11:56:08;98552.72;;;8.41;81.85
53340;BME280;46212;50.258;19.062;2023-04-19T11:58:37;98555.16;;;8.39;82.42
53340;BME280;46212;50.258;19.062;2023-04-19T12:01:09;98542.94;;;8.27;83.64
53340;BME280;46212;50.258;19.062;2023-04-19T12:03:46;98549.19;;;8.28;84.26
53340;BME280;46212;50.258;19.062;2023-04-19T12:06:17;98557.88;;;8.26;84.10
53340;BME280;46212;50.258;19.062;2023-04-19T12:08:45;98552.81;;;8.25;84.55
53340;BME280;46212;50.258;19.062;2023-04-19T12:11:12;98538.63;;;8.26;83.84
53340;BME280;46212;50.258;19.062;2023-04-19T12:13:38;98543.47;;;8.22;84.23
53340;BME280;46212;50.258;19.062;2023-04-19T12:16:05;98545.56;;;8.31;83.84
53340;BME280;46212;50.258;19.062;2023-04-19T12:18:48;98549.19;;;8.28;83.85
53340;BME280;46212;50.258;19.062;2023-04-19T12:21:28;98548.97;;;8.22;83.62
53340;BME280;46212;50.258;19.062;2023-04-19T12:23:56;98548.44;;;8.15;83.95
53340;BME280;46212;50.258;19.062;2023-04-19T12:26:22;98552.81;;;8.12;84.01
53340;BME280;46212;50.258;19.062;2023-04-19T12:28:48;98542.47;;;8.16;83.95
53340;BME280;46212;50.258;19.062;2023-04-19T12:31:14;98539.84;;;8.13;84.24
53340;BME280;46212;50.258;19.062;2023-04-19T12:33:40;98558.56;;;8.18;84.49
53340;BME280;46212;50.258;19.062;2023-04-19T12:36:06;98549.63;;;8.01;85.28
53340;BME280;46212;50.258;19.062;2023-04-19T12:38:31;98552.72;;;8.16;84.40
53340;BME280;46212;50.258;19.062;2023-04-19T12:40:56;98554.16;;;8.20;83.79
53340;BME280;46212;50.258;19.062;2023-04-19T12:43:22;98553.94;;;8.15;83.85
53340;BME280;46212;50.258;19.062;2023-04-19T12:45:47;98561.84;;;8.13;84.32
53340;BME280;46212;50.258;19.062;2023-04-19T12:48:13;98558.78;;;8.11;84.42
53340;BME280;46212;50.258;19.062;2023-04-19T12:50:38;98563.28;;;8.05;84.93
53340;BME280;46212;50.258;19.062;2023-04-19T12:53:04;98561.63;;;8.07;85.06
53340;BME280;46212;50.258;19.062;2023-04-19T12:55:30;98554.16;;;8.08;84.69
53340;BME280;46212;50.258;19.062;2023-04-19T12:57:56;98557.00;;;8.04;84.82
53340;BME280;46212;50.258;19.062;2023-04-19T13:00:21;98555.47;;;8.03;85.61
53340;BME280;46212;50.258;19.062;2023-04-19T13:02:47;98555.03;;;8.05;85.36
53340;BME280;46212;50.258;19.062;2023-04-19T13:05:12;98554.03;;;8.11;85.07
53340;BME280;46212;50.258;19.062;2023-04-19T13:07:38;98559.56;;;8.11;85.03
53340;BME280;46212;50.258;19.062;2023-04-19T13:10:04;98554.25;;;8.04;85.24
53340;BME280;46212;50.258;19.062;2023-04-19T13:12:30;98558.97;;;8.03;85.33